createdAt,value
2022-11-07T00:03:55.103Z,5.45
2022-11-07T00:08:59.609Z,5.79
2022-11-07T00:14:03.915Z,5.89
2022-11-07T00:19:06.818Z,6.23
2022-11-07T00:24:10.667Z,6.18
2022-11-07T00:29:16.255Z,6.30
2022-11-07T00:34:19.598Z,6.34
2022-11-07T00:39:22.745Z,6.28
2022-11-07T00:44:27.089Z,6.23
2022-11-07T00:49:30.003Z,6.14
2022-11-07T00:54:32.891Z,6.15
2022-11-07T00:59:37.163Z,6.15
2022-11-07T01:04:57.553Z,6.44
2022-11-07T01:10:00.534Z,6.47
2022-11-07T01:15:05.257Z,6.37
2022-11-07T01:20:09.528Z,6.35
2022-11-07T01:25:12.442Z,6.63
2022-11-07T01:30:16.769Z,6.51
2022-11-07T01:35:19.733Z,6.37
2022-11-07T01:40:22.778Z,6.61
2022-11-07T01:45:29.631Z,6.59
2022-11-07T01:50:32.879Z,6.26
2022-11-07T01:55:37.022Z,6.22
2022-11-07T02:00:41.421Z,5.82
2022-11-07T02:05:50.019Z,6.32
2022-11-07T02:10:54.712Z,5.77
2022-11-07T02:16:00.967Z,5.60
2022-11-07T02:21:12.112Z,5.47
2022-11-07T02:26:16.814Z,5.44
2022-11-07T02:31:19.755Z,5.39
2022-11-07T02:36:25.355Z,5.47
2022-11-07T02:41:35.050Z,5.39
2022-11-07T02:46:38.562Z,5.27
2022-11-07T02:51:41.459Z,5.08
2022-11-07T02:56:45.882Z,4.85
2022-11-07T03:01:48.905Z,4.87
2022-11-07T03:06:51.974Z,4.45
2022-11-07T03:11:56.435Z,4.60
2022-11-07T03:16:59.387Z,4.48
2022-11-07T03:22:02.537Z,4.48
2022-11-07T03:27:06.868Z,4.33
2022-11-07T03:32:09.832Z,4.41
2022-11-07T03:37:12.801Z,4.37
2022-11-07T03:42:17.114Z,4.22
2022-11-07T03:47:20.066Z,4.13
2022-11-07T03:52:22.958Z,4.23
2022-11-07T03:57:27.283Z,4.28
2022-11-07T04:02:30.326Z,4.26
2022-11-07T04:07:33.338Z,4.24
2022-11-07T04:12:55.350Z,4.26
2022-11-07T04:17:58.271Z,3.71
2022-11-07T04:23:01.177Z,3.82
2022-11-07T04:28:05.798Z,3.87
2022-11-07T04:33:08.714Z,3.96
2022-11-07T04:38:11.669Z,4.05
2022-11-07T04:43:16.205Z,4.12
2022-11-07T04:48:19.970Z,4.33
2022-11-07T04:53:23.212Z,4.78
2022-11-07T04:58:27.523Z,4.29
2022-11-07T05:03:30.444Z,4.86
2022-11-07T05:08:33.331Z,5.32
2022-11-07T05:13:37.636Z,5.52
2022-11-07T05:18:40.505Z,5.78
2022-11-07T05:23:43.437Z,5.73
2022-11-07T05:28:47.709Z,5.85
2022-11-07T05:33:50.607Z,5.76
2022-11-07T05:38:54.598Z,5.47
2022-11-07T05:43:59.367Z,5.26
2022-11-07T05:49:02.262Z,5.09
2022-11-07T05:54:05.355Z,5.05
2022-11-07T05:59:10.039Z,4.84
2022-11-07T06:04:12.910Z,4.72
2022-11-07T06:09:15.930Z,4.69
2022-11-07T06:14:20.314Z,4.48
2022-11-07T06:19:23.205Z,4.44
2022-11-07T06:24:26.086Z,4.61
2022-11-07T06:29:30.403Z,4.65
2022-11-07T06:34:33.311Z,4.50
2022-11-07T06:39:36.213Z,4.53
2022-11-07T06:44:40.480Z,4.62
2022-11-07T06:49:43.379Z,4.57
2022-11-07T06:54:46.354Z,4.60
2022-11-07T06:59:52.040Z,4.63
2022-11-07T07:04:55.104Z,4.72
2022-11-07T07:09:58.057Z,4.79
2022-11-07T07:15:02.406Z,4.79
2022-11-07T07:20:06.935Z,4.96
2022-11-07T07:25:11.598Z,4.98
2022-11-07T07:30:16.584Z,5.11
2022-11-07T07:35:19.543Z,5.43
2022-11-07T07:40:22.967Z,5.99
2022-11-07T07:45:27.314Z,6.68
2022-11-07T07:50:30.275Z,6.90
2022-11-07T07:55:33.202Z,7.41
2022-11-07T08:00:37.511Z,7.75
2022-11-07T08:05:41.022Z,8.07
2022-11-07T08:10:43.937Z,8.28
2022-11-07T08:15:48.223Z,8.62
2022-11-07T08:20:52.292Z,8.87
2022-11-07T08:25:57.383Z,8.92
2022-11-07T08:31:04.355Z,8.73
2022-11-07T08:36:08.657Z,8.60
2022-11-07T08:41:11.562Z,8.62
2022-11-07T08:46:15.918Z,8.59
2022-11-07T08:51:18.845Z,9.32
2022-11-07T08:56:21.740Z,9.54
2022-11-07T09:01:26.125Z,9.78
2022-11-07T09:06:29.114Z,10.20
2022-11-07T09:11:32.096Z,10.27
2022-11-07T09:16:36.375Z,10.50
2022-11-07T09:21:39.425Z,10.28
2022-11-07T09:26:42.344Z,10.49
2022-11-07T09:31:46.627Z,10.58
2022-11-07T09:36:49.522Z,10.73
2022-11-07T09:41:57.740Z,11.00
2022-11-07T09:47:08.200Z,10.97
2022-11-07T09:52:17.117Z,11.64
2022-11-07T09:57:21.182Z,11.78
2022-11-07T10:02:30.355Z,11.90
2022-11-07T10:07:47.276Z,12.04
2022-11-07T10:13:11.866Z,11.95
2022-11-07T10:18:23.953Z,12.06
2022-11-07T10:23:40.529Z,12.00
2022-11-07T10:28:46.285Z,12.12
2022-11-07T10:33:55.254Z,11.89
2022-11-07T10:38:58.636Z,12.09
2022-11-07T10:44:04.538Z,12.09
2022-11-07T10:49:19.975Z,12.10
2022-11-07T10:54:29.152Z,12.14
2022-11-07T10:59:36.423Z,12.21
2022-11-07T11:04:51.078Z,12.36
2022-11-07T11:09:56.665Z,12.52
2022-11-07T11:15:14.304Z,12.25
2022-11-07T11:20:47.576Z,12.33
2022-11-07T11:25:52.700Z,12.26
2022-11-07T11:31:00.185Z,12.31
2022-11-07T11:36:12.080Z,12.55
2022-11-07T11:41:21.407Z,12.44
2022-11-07T11:46:31.828Z,12.59
2022-11-07T11:51:42.051Z,12.46
2022-11-07T11:56:53.290Z,12.19
2022-11-07T12:02:10.374Z,12.09
2022-11-07T12:07:32.415Z,11.98
2022-11-07T12:12:49.637Z,11.99
2022-11-07T12:17:59.829Z,12.01
2022-11-07T12:23:19.652Z,11.69
2022-11-07T12:28:37.643Z,11.71
2022-11-07T12:33:48.774Z,11.89
2022-11-07T12:39:09.895Z,11.70
2022-11-07T12:44:31.060Z,11.71
2022-11-07T12:49:45.815Z,11.65
2022-11-07T12:54:57.194Z,11.74
2022-11-07T13:00:06.587Z,11.62
2022-11-07T13:05:36.343Z,11.54
2022-11-07T13:10:52.106Z,11.66
2022-11-07T13:16:14.586Z,11.80
2022-11-07T13:21:17.999Z,11.86
2022-11-07T13:26:46.840Z,11.91
2022-11-07T13:32:05.400Z,11.78
2022-11-07T13:37:14.273Z,11.87
2022-11-07T13:42:19.916Z,11.77
2022-11-07T13:47:30.702Z,11.76
2022-11-07T13:52:42.083Z,11.83
2022-11-07T13:57:53.471Z,11.96
2022-11-07T14:02:58.394Z,11.90
2022-11-07T14:08:03.681Z,11.90
2022-11-07T14:13:10.079Z,11.94
2022-11-07T14:18:16.659Z,11.80
2022-11-07T14:23:22.602Z,11.84
2022-11-07T14:28:34.534Z,11.66
2022-11-07T14:33:37.668Z,11.64
2022-11-07T14:38:47.968Z,11.58
2022-11-07T14:43:53.216Z,11.55
2022-11-07T14:48:56.668Z,11.48
2022-11-07T14:54:04.894Z,11.34
2022-11-07T14:59:11.945Z,11.35
2022-11-07T15:04:29.467Z,11.27
2022-11-07T15:09:33.812Z,11.18
2022-11-07T15:14:38.570Z,11.14
2022-11-07T15:19:41.630Z,11.13
2022-11-07T15:24:46.322Z,11.13
2022-11-07T15:29:56.013Z,11.07
2022-11-07T15:35:12.421Z,10.94
2022-11-07T15:40:23.327Z,10.89
2022-11-07T15:45:27.843Z,10.94
2022-11-07T15:50:30.755Z,10.91
2022-11-07T15:55:34.493Z,10.80
2022-11-07T16:00:38.796Z,10.69
2022-11-07T16:05:42.497Z,10.66
2022-11-07T16:10:48.326Z,10.59
2022-11-07T16:15:57.275Z,10.51
2022-11-07T16:21:00.243Z,10.45
2022-11-07T16:26:03.383Z,10.42
2022-11-07T16:31:07.774Z,10.29
2022-11-07T16:36:21.608Z,10.33
2022-11-07T16:41:24.932Z,10.31
2022-11-07T16:46:30.147Z,10.28
2022-11-07T16:51:33.139Z,10.28
2022-11-07T16:56:36.603Z,10.49
2022-11-07T17:01:41.096Z,10.31
2022-11-07T17:06:47.639Z,10.29
2022-11-07T17:11:50.732Z,10.13
2022-11-07T17:16:55.071Z,10.08
2022-11-07T17:21:58.546Z,9.92
2022-11-07T17:27:01.715Z,9.92
2022-11-07T17:32:06.434Z,9.93
2022-11-07T17:37:15.166Z,9.86
2022-11-07T17:42:18.194Z,9.88
2022-11-07T17:47:29.257Z,9.69
2022-11-07T17:52:32.272Z,9.58
2022-11-07T17:57:35.279Z,9.48
2022-11-07T18:02:39.998Z,9.14
2022-11-07T18:07:44.131Z,9.46
2022-11-07T18:12:47.062Z,9.25
2022-11-07T18:17:51.391Z,9.23
2022-11-07T18:22:54.372Z,9.22
2022-11-07T18:27:57.295Z,9.39
2022-11-07T18:33:01.604Z,9.32
2022-11-07T18:38:04.624Z,8.92
2022-11-07T18:43:09.978Z,9.25
2022-11-07T18:48:16.605Z,9.25
2022-11-07T18:53:20.238Z,9.12
2022-11-07T18:58:23.152Z,9.35
2022-11-07T19:03:27.547Z,9.14
2022-11-07T19:08:32.007Z,9.25
2022-11-07T19:13:36.391Z,9.28
2022-11-07T19:18:44.106Z,9.32
2022-11-07T19:23:50.418Z,9.09
2022-11-07T19:28:54.276Z,9.25
2022-11-07T19:33:58.776Z,9.19
2022-11-07T19:39:03.019Z,9.29
2022-11-07T19:44:07.231Z,9.01
2022-11-07T19:49:11.743Z,9.09
2022-11-07T19:54:14.644Z,9.13
2022-11-07T19:59:17.546Z,9.04
2022-11-07T20:04:21.872Z,9.19
2022-11-07T20:09:24.821Z,9.16
2022-11-07T20:14:27.814Z,9.15
2022-11-07T20:19:33.953Z,9.19
2022-11-07T20:24:36.870Z,9.24
2022-11-07T20:29:39.782Z,9.21
2022-11-07T20:34:44.319Z,9.10
2022-11-07T20:39:47.252Z,9.00
2022-11-07T20:44:51.026Z,9.01
2022-11-07T20:49:55.701Z,9.02
2022-11-07T20:54:58.734Z,8.63
2022-11-07T21:00:01.661Z,8.70
2022-11-07T21:05:21.961Z,8.83
2022-11-07T21:10:24.911Z,8.65
2022-11-07T21:15:27.792Z,8.44
2022-11-07T21:20:32.096Z,8.32
2022-11-07T21:25:35.430Z,8.34
2022-11-07T21:30:38.851Z,8.43
2022-11-07T21:35:43.461Z,8.43
2022-11-07T21:40:46.378Z,8.64
2022-11-07T21:45:49.339Z,8.42
2022-11-07T21:50:53.605Z,8.40
2022-11-07T21:56:00.147Z,8.50
2022-11-07T22:01:03.707Z,8.52
2022-11-07T22:06:10.381Z,8.76
2022-11-07T22:11:13.311Z,8.97
2022-11-07T22:16:18.825Z,9.11
2022-11-07T22:21:24.546Z,9.11
2022-11-07T22:26:28.944Z,9.17
2022-11-07T22:31:32.511Z,8.89
2022-11-07T22:36:36.847Z,8.84
2022-11-07T22:41:40.038Z,8.97
2022-11-07T22:46:42.947Z,8.97
2022-11-07T22:51:47.274Z,9.11
2022-11-07T22:56:50.163Z,8.98
2022-11-07T23:01:53.211Z,8.71
2022-11-07T23:06:57.566Z,8.86
2022-11-07T23:12:00.518Z,9.23
2022-11-07T23:17:03.552Z,9.32
2022-11-07T23:22:07.887Z,9.21
2022-11-07T23:27:10.779Z,9.23
2022-11-07T23:32:16.372Z,9.19
2022-11-07T23:37:20.665Z,9.13
2022-11-07T23:42:23.591Z,8.99
2022-11-07T23:47:44.031Z,9.14
2022-11-07T23:52:48.303Z,9.24
2022-11-07T23:58:08.833Z,9.17
